sensor_id;sensor_type;location;lat;lon;timestamp;P1;durP1;ratioP1;P2;durP2;ratioP2
68072;SDS011;54862;51.502;7.446;2022-12-07T00:00:19;35.22;;;18.75;;
68072;SDS011;54862;51.502;7.446;2022-12-07T00:02:45;34.38;;;18.80;;
68072;SDS011;54862;51.502;7.446;2022-12-07T00:05:11;41.03;;;21.10;;
68072;SDS011;54862;51.502;7.446;2022-12-07T00:07:37;35.70;;;19.33;;
68072;SDS011;54862;51.502;7.446;2022-12-07T00:10:03;38.33;;;20.15;;
68072;SDS011;54862;51.502;7.446;2022-12-07T00:12:29;40.05;;;19.60;;
68072;SDS011;54862;51.502;7.446;2022-12-07T00:14:55;38.40;;;19.73;;
68072;SDS011;54862;51.502;7.446;2022-12-07T00:17:21;35.97;;;18.77;;
68072;SDS011;54862;51.502;7.446;2022-12-07T00:19:47;33.40;;;18.40;;
68072;SDS011;54862;51.502;7.446;2022-12-07T00:22:13;35.45;;;18.75;;
68072;SDS011;54862;51.502;7.446;2022-12-07T00:24:39;39.67;;;20.50;;
68072;SDS011;54862;51.502;7.446;2022-12-07T00:27:05;35.55;;;19.98;;
68072;SDS011;54862;51.502;7.446;2022-12-07T00:29:31;34.47;;;19.13;;
68072;SDS011;54862;51.502;7.446;2022-12-07T00:31:57;37.60;;;19.50;;
68072;SDS011;54862;51.502;7.446;2022-12-07T00:34:23;36.65;;;19.02;;
68072;SDS011;54862;51.502;7.446;2022-12-07T00:36:49;37.13;;;18.42;;
68072;SDS011;54862;51.502;7.446;2022-12-07T00:39:15;38.50;;;18.63;;
68072;SDS011;54862;51.502;7.446;2022-12-07T00:41:41;38.00;;;19.33;;
68072;SDS011;54862;51.502;7.446;2022-12-07T00:44:07;36.78;;;19.45;;
68072;SDS011;54862;51.502;7.446;2022-12-07T00:46:33;36.78;;;19.30;;
68072;SDS011;54862;51.502;7.446;2022-12-07T00:48:59;34.50;;;18.65;;
68072;SDS011;54862;51.502;7.446;2022-12-07T00:51:25;34.35;;;18.45;;
68072;SDS011;54862;51.502;7.446;2022-12-07T00:53:51;35.40;;;18.25;;
68072;SDS011;54862;51.502;7.446;2022-12-07T00:56:18;39.15;;;21.20;;
68072;SDS011;54862;51.502;7.446;2022-12-07T00:58:49;33.13;;;18.33;;
68072;SDS011;54862;51.502;7.446;2022-12-07T01:01:15;35.30;;;18.73;;
68072;SDS011;54862;51.502;7.446;2022-12-07T01:03:41;36.85;;;18.90;;
68072;SDS011;54862;51.502;7.446;2022-12-07T01:06:07;36.05;;;20.05;;
68072;SDS011;54862;51.502;7.446;2022-12-07T01:08:33;36.45;;;18.02;;
68072;SDS011;54862;51.502;7.446;2022-12-07T01:11:00;37.17;;;17.85;;
68072;SDS011;54862;51.502;7.446;2022-12-07T01:13:26;32.05;;;17.33;;
68072;SDS011;54862;51.502;7.446;2022-12-07T01:15:55;33.38;;;18.27;;
68072;SDS011;54862;51.502;7.446;2022-12-07T01:18:21;30.80;;;17.27;;
68072;SDS011;54862;51.502;7.446;2022-12-07T01:20:56;30.67;;;17.52;;
68072;SDS011;54862;51.502;7.446;2022-12-07T01:23:22;29.95;;;16.77;;
68072;SDS011;54862;51.502;7.446;2022-12-07T01:25:53;29.75;;;17.33;;
68072;SDS011;54862;51.502;7.446;2022-12-07T01:28:19;34.08;;;18.60;;
68072;SDS011;54862;51.502;7.446;2022-12-07T01:30:53;33.50;;;17.65;;
68072;SDS011;54862;51.502;7.446;2022-12-07T01:33:19;34.78;;;18.95;;
68072;SDS011;54862;51.502;7.446;2022-12-07T01:35:45;35.60;;;19.17;;
68072;SDS011;54862;51.502;7.446;2022-12-07T01:38:11;34.25;;;18.02;;
68072;SDS011;54862;51.502;7.446;2022-12-07T01:40:37;32.72;;;17.27;;
68072;SDS011;54862;51.502;7.446;2022-12-07T01:43:04;33.22;;;18.83;;
68072;SDS011;54862;51.502;7.446;2022-12-07T01:45:38;32.85;;;18.27;;
68072;SDS011;54862;51.502;7.446;2022-12-07T01:48:04;38.28;;;18.90;;
68072;SDS011;54862;51.502;7.446;2022-12-07T01:50:31;37.65;;;18.90;;
68072;SDS011;54862;51.502;7.446;2022-12-07T01:52:57;34.00;;;18.77;;
68072;SDS011;54862;51.502;7.446;2022-12-07T01:55:26;40.35;;;18.58;;
68072;SDS011;54862;51.502;7.446;2022-12-07T01:57:52;35.55;;;18.42;;
68072;SDS011;54862;51.502;7.446;2022-12-07T02:00:19;34.97;;;18.23;;
68072;SDS011;54862;51.502;7.446;2022-12-07T02:02:57;34.67;;;18.42;;
68072;SDS011;54862;51.502;7.446;2022-12-07T02:05:24;36.45;;;19.20;;
68072;SDS011;54862;51.502;7.446;2022-12-07T02:07:50;32.03;;;18.25;;
68072;SDS011;54862;51.502;7.446;2022-12-07T02:10:27;34.65;;;18.30;;
68072;SDS011;54862;51.502;7.446;2022-12-07T02:13:27;36.97;;;18.42;;
68072;SDS011;54862;51.502;7.446;2022-12-07T02:23:21;33.70;;;18.20;;
68072;SDS011;54862;51.502;7.446;2022-12-07T02:26:10;31.52;;;17.92;;
68072;SDS011;54862;51.502;7.446;2022-12-07T02:31:12;36.17;;;18.05;;
68072;SDS011;54862;51.502;7.446;2022-12-07T02:33:41;35.22;;;17.63;;
68072;SDS011;54862;51.502;7.446;2022-12-07T02:36:30;32.83;;;18.00;;
68072;SDS011;54862;51.502;7.446;2022-12-07T02:39:00;33.28;;;16.90;;
68072;SDS011;54862;51.502;7.446;2022-12-07T02:41:31;31.23;;;17.17;;
68072;SDS011;54862;51.502;7.446;2022-12-07T02:44:00;33.00;;;17.15;;
68072;SDS011;54862;51.502;7.446;2022-12-07T02:46:36;32.53;;;17.60;;
68072;SDS011;54862;51.502;7.446;2022-12-07T02:49:03;30.77;;;17.73;;
68072;SDS011;54862;51.502;7.446;2022-12-07T02:51:30;29.42;;;17.33;;
68072;SDS011;54862;51.502;7.446;2022-12-07T02:53:56;31.27;;;17.17;;
68072;SDS011;54862;51.502;7.446;2022-12-07T03:04:05;38.00;;;17.30;;
68072;SDS011;54862;51.502;7.446;2022-12-07T03:06:35;29.33;;;16.80;;
68072;SDS011;54862;51.502;7.446;2022-12-07T03:09:18;33.80;;;17.23;;
68072;SDS011;54862;51.502;7.446;2022-12-07T03:14:13;29.88;;;15.20;;
68072;SDS011;54862;51.502;7.446;2022-12-07T03:16:43;32.47;;;16.27;;
68072;SDS011;54862;51.502;7.446;2022-12-07T03:19:13;30.38;;;15.32;;
68072;SDS011;54862;51.502;7.446;2022-12-07T03:21:40;32.50;;;16.15;;
68072;SDS011;54862;51.502;7.446;2022-12-07T03:24:17;30.08;;;15.98;;
68072;SDS011;54862;51.502;7.446;2022-12-07T03:26:46;27.10;;;14.95;;
68072;SDS011;54862;51.502;7.446;2022-12-07T03:29:17;27.75;;;15.07;;
68072;SDS011;54862;51.502;7.446;2022-12-07T03:31:47;28.67;;;15.40;;
68072;SDS011;54862;51.502;7.446;2022-12-07T03:34:18;28.45;;;14.25;;
68072;SDS011;54862;51.502;7.446;2022-12-07T03:39:17;28.00;;;14.02;;
68072;SDS011;54862;51.502;7.446;2022-12-07T03:41:47;27.77;;;14.30;;
68072;SDS011;54862;51.502;7.446;2022-12-07T03:44:13;27.13;;;14.40;;
68072;SDS011;54862;51.502;7.446;2022-12-07T03:54:27;31.88;;;15.55;;
68072;SDS011;54862;51.502;7.446;2022-12-07T03:56:55;27.63;;;15.00;;
68072;SDS011;54862;51.502;7.446;2022-12-07T03:59:21;31.67;;;16.83;;
68072;SDS011;54862;51.502;7.446;2022-12-07T04:01:52;29.15;;;15.40;;
68072;SDS011;54862;51.502;7.446;2022-12-07T04:04:19;32.35;;;15.23;;
68072;SDS011;54862;51.502;7.446;2022-12-07T04:06:45;31.30;;;17.25;;
68072;SDS011;54862;51.502;7.446;2022-12-07T04:09:11;27.52;;;14.90;;
68072;SDS011;54862;51.502;7.446;2022-12-07T04:11:39;27.70;;;14.98;;
68072;SDS011;54862;51.502;7.446;2022-12-07T04:14:05;31.00;;;16.10;;
68072;SDS011;54862;51.502;7.446;2022-12-07T04:16:44;34.83;;;16.77;;
68072;SDS011;54862;51.502;7.446;2022-12-07T04:19:10;31.73;;;15.50;;
68072;SDS011;54862;51.502;7.446;2022-12-07T04:21:36;28.85;;;15.18;;
68072;SDS011;54862;51.502;7.446;2022-12-07T04:24:02;26.63;;;14.55;;
68072;SDS011;54862;51.502;7.446;2022-12-07T04:26:28;29.63;;;14.85;;
68072;SDS011;54862;51.502;7.446;2022-12-07T04:28:54;27.70;;;15.30;;
68072;SDS011;54862;51.502;7.446;2022-12-07T04:31:20;29.23;;;14.82;;
68072;SDS011;54862;51.502;7.446;2022-12-07T04:33:46;28.10;;;14.70;;
68072;SDS011;54862;51.502;7.446;2022-12-07T04:36:12;29.77;;;13.88;;
68072;SDS011;54862;51.502;7.446;2022-12-07T04:38:38;30.83;;;14.43;;
68072;SDS011;54862;51.502;7.446;2022-12-07T04:41:08;32.72;;;15.45;;
68072;SDS011;54862;51.502;7.446;2022-12-07T04:43:34;27.73;;;14.43;;
68072;SDS011;54862;51.502;7.446;2022-12-07T04:46:01;34.85;;;13.93;;
68072;SDS011;54862;51.502;7.446;2022-12-07T04:48:27;25.02;;;13.88;;
68072;SDS011;54862;51.502;7.446;2022-12-07T04:50:54;24.95;;;13.98;;
68072;SDS011;54862;51.502;7.446;2022-12-07T04:53:20;23.33;;;13.43;;
68072;SDS011;54862;51.502;7.446;2022-12-07T04:55:46;28.85;;;14.48;;
68072;SDS011;54862;51.502;7.446;2022-12-07T04:58:12;22.40;;;12.48;;
68072;SDS011;54862;51.502;7.446;2022-12-07T05:00:38;22.60;;;12.55;;
68072;SDS011;54862;51.502;7.446;2022-12-07T05:03:04;27.08;;;14.57;;
68072;SDS011;54862;51.502;7.446;2022-12-07T05:05:30;23.40;;;12.65;;
68072;SDS011;54862;51.502;7.446;2022-12-07T05:07:56;26.25;;;13.00;;
68072;SDS011;54862;51.502;7.446;2022-12-07T05:10:22;31.15;;;13.90;;
68072;SDS011;54862;51.502;7.446;2022-12-07T05:12:48;26.10;;;13.00;;
68072;SDS011;54862;51.502;7.446;2022-12-07T05:15:14;26.80;;;13.10;;
68072;SDS011;54862;51.502;7.446;2022-12-07T05:17:41;29.42;;;13.57;;
68072;SDS011;54862;51.502;7.446;2022-12-07T05:20:07;30.67;;;13.90;;
68072;SDS011;54862;51.502;7.446;2022-12-07T05:22:34;28.88;;;13.73;;
68072;SDS011;54862;51.502;7.446;2022-12-07T05:25:00;28.48;;;13.13;;
68072;SDS011;54862;51.502;7.446;2022-12-07T05:27:26;25.85;;;14.52;;
68072;SDS011;54862;51.502;7.446;2022-12-07T05:29:52;23.95;;;13.18;;
68072;SDS011;54862;51.502;7.446;2022-12-07T05:32:18;23.77;;;13.23;;
68072;SDS011;54862;51.502;7.446;2022-12-07T05:34:44;25.80;;;13.70;;
68072;SDS011;54862;51.502;7.446;2022-12-07T05:37:10;26.30;;;12.35;;
68072;SDS011;54862;51.502;7.446;2022-12-07T05:39:36;25.65;;;12.75;;
68072;SDS011;54862;51.502;7.446;2022-12-07T05:42:05;24.23;;;13.48;;
68072;SDS011;54862;51.502;7.446;2022-12-07T05:44:41;24.63;;;12.77;;
68072;SDS011;54862;51.502;7.446;2022-12-07T05:47:07;25.42;;;13.88;;
68072;SDS011;54862;51.502;7.446;2022-12-07T05:49:33;31.88;;;13.30;;
68072;SDS011;54862;51.502;7.446;2022-12-07T05:51:59;27.63;;;13.35;;
68072;SDS011;54862;51.502;7.446;2022-12-07T05:54:26;27.05;;;13.43;;
68072;SDS011;54862;51.502;7.446;2022-12-07T05:56:52;30.02;;;12.80;;
68072;SDS011;54862;51.502;7.446;2022-12-07T05:59:18;27.27;;;14.18;;
68072;SDS011;54862;51.502;7.446;2022-12-07T06:04:18;25.05;;;13.10;;
68072;SDS011;54862;51.502;7.446;2022-12-07T06:06:44;27.98;;;14.60;;
68072;SDS011;54862;51.502;7.446;2022-12-07T06:09:10;24.60;;;13.25;;
68072;SDS011;54862;51.502;7.446;2022-12-07T06:11:37;24.23;;;13.32;;
68072;SDS011;54862;51.502;7.446;2022-12-07T06:14:22;23.58;;;12.15;;
68072;SDS011;54862;51.502;7.446;2022-12-07T06:16:48;27.65;;;13.27;;
68072;SDS011;54862;51.502;7.446;2022-12-07T06:19:14;24.80;;;12.45;;
68072;SDS011;54862;51.502;7.446;2022-12-07T06:21:40;24.70;;;12.65;;
68072;SDS011;54862;51.502;7.446;2022-12-07T06:24:06;26.73;;;12.43;;
68072;SDS011;54862;51.502;7.446;2022-12-07T06:26:32;25.10;;;12.27;;
68072;SDS011;54862;51.502;7.446;2022-12-07T06:28:58;27.30;;;11.90;;
68072;SDS011;54862;51.502;7.446;2022-12-07T06:31:24;24.40;;;12.48;;
68072;SDS011;54862;51.502;7.446;2022-12-07T06:33:50;22.42;;;11.13;;
68072;SDS011;54862;51.502;7.446;2022-12-07T06:36:16;26.58;;;12.70;;
68072;SDS011;54862;51.502;7.446;2022-12-07T06:38:42;22.35;;;11.68;;
68072;SDS011;54862;51.502;7.446;2022-12-07T06:41:08;22.70;;;12.15;;
68072;SDS011;54862;51.502;7.446;2022-12-07T06:43:34;25.73;;;12.90;;
68072;SDS011;54862;51.502;7.446;2022-12-07T06:46:00;26.25;;;13.23;;
68072;SDS011;54862;51.502;7.446;2022-12-07T06:48:26;27.77;;;12.43;;
68072;SDS011;54862;51.502;7.446;2022-12-07T06:50:52;25.45;;;11.73;;
68072;SDS011;54862;51.502;7.446;2022-12-07T06:53:18;24.08;;;12.40;;
68072;SDS011;54862;51.502;7.446;2022-12-07T06:55:44;28.77;;;11.57;;
68072;SDS011;54862;51.502;7.446;2022-12-07T06:58:10;26.00;;;12.00;;
68072;SDS011;54862;51.502;7.446;2022-12-07T07:00:36;26.67;;;11.77;;
68072;SDS011;54862;51.502;7.446;2022-12-07T07:03:02;22.63;;;12.20;;
68072;SDS011;54862;51.502;7.446;2022-12-07T07:05:28;26.42;;;12.80;;
68072;SDS011;54862;51.502;7.446;2022-12-07T07:07:54;23.52;;;13.00;;
68072;SDS011;54862;51.502;7.446;2022-12-07T07:10:20;25.65;;;12.82;;
68072;SDS011;54862;51.502;7.446;2022-12-07T07:12:46;28.33;;;12.73;;
68072;SDS011;54862;51.502;7.446;2022-12-07T07:15:12;24.58;;;11.30;;
68072;SDS011;54862;51.502;7.446;2022-12-07T07:17:38;24.65;;;11.95;;
68072;SDS011;54862;51.502;7.446;2022-12-07T07:20:04;25.65;;;11.40;;
68072;SDS011;54862;51.502;7.446;2022-12-07T07:22:31;24.25;;;12.43;;
68072;SDS011;54862;51.502;7.446;2022-12-07T07:24:57;24.70;;;12.55;;
68072;SDS011;54862;51.502;7.446;2022-12-07T07:27:23;21.50;;;10.60;;
68072;SDS011;54862;51.502;7.446;2022-12-07T07:29:49;22.90;;;10.10;;
68072;SDS011;54862;51.502;7.446;2022-12-07T07:32:15;21.20;;;10.10;;
68072;SDS011;54862;51.502;7.446;2022-12-07T07:34:40;20.88;;;10.93;;
68072;SDS011;54862;51.502;7.446;2022-12-07T07:37:06;24.38;;;10.48;;
68072;SDS011;54862;51.502;7.446;2022-12-07T07:39:32;20.50;;;9.27;;
68072;SDS011;54862;51.502;7.446;2022-12-07T07:41:58;23.98;;;10.32;;
68072;SDS011;54862;51.502;7.446;2022-12-07T07:44:24;18.85;;;8.57;;
68072;SDS011;54862;51.502;7.446;2022-12-07T07:46:50;18.85;;;9.25;;
68072;SDS011;54862;51.502;7.446;2022-12-07T07:49:16;20.92;;;8.98;;
68072;SDS011;54862;51.502;7.446;2022-12-07T07:51:42;18.80;;;9.73;;
68072;SDS011;54862;51.502;7.446;2022-12-07T07:54:08;20.73;;;8.98;;
68072;SDS011;54862;51.502;7.446;2022-12-07T07:56:34;20.65;;;8.80;;
68072;SDS011;54862;51.502;7.446;2022-12-07T07:59:00;18.67;;;9.10;;
68072;SDS011;54862;51.502;7.446;2022-12-07T08:01:26;21.42;;;9.27;;
68072;SDS011;54862;51.502;7.446;2022-12-07T08:03:52;21.75;;;8.88;;
68072;SDS011;54862;51.502;7.446;2022-12-07T08:06:18;21.67;;;9.75;;
68072;SDS011;54862;51.502;7.446;2022-12-07T08:08:44;18.23;;;10.07;;
68072;SDS011;54862;51.502;7.446;2022-12-07T08:11:10;20.45;;;8.93;;
68072;SDS011;54862;51.502;7.446;2022-12-07T08:13:36;19.73;;;8.73;;
68072;SDS011;54862;51.502;7.446;2022-12-07T08:16:03;17.42;;;8.82;;
68072;SDS011;54862;51.502;7.446;2022-12-07T08:18:29;20.20;;;9.40;;
68072;SDS011;54862;51.502;7.446;2022-12-07T08:20:59;17.20;;;9.48;;
68072;SDS011;54862;51.502;7.446;2022-12-07T08:23:28;21.25;;;8.75;;
68072;SDS011;54862;51.502;7.446;2022-12-07T08:25:55;22.42;;;9.20;;
68072;SDS011;54862;51.502;7.446;2022-12-07T08:28:21;20.10;;;8.80;;
68072;SDS011;54862;51.502;7.446;2022-12-07T08:30:46;18.55;;;8.35;;
68072;SDS011;54862;51.502;7.446;2022-12-07T08:33:13;19.27;;;8.40;;
68072;SDS011;54862;51.502;7.446;2022-12-07T08:35:39;16.85;;;8.55;;
68072;SDS011;54862;51.502;7.446;2022-12-07T08:38:05;18.35;;;7.97;;
68072;SDS011;54862;51.502;7.446;2022-12-07T08:40:31;18.13;;;8.13;;
68072;SDS011;54862;51.502;7.446;2022-12-07T08:42:57;15.82;;;7.28;;
68072;SDS011;54862;51.502;7.446;2022-12-07T08:45:23;16.98;;;7.82;;
68072;SDS011;54862;51.502;7.446;2022-12-07T08:47:53;15.85;;;8.30;;
68072;SDS011;54862;51.502;7.446;2022-12-07T08:50:20;18.60;;;7.38;;
68072;SDS011;54862;51.502;7.446;2022-12-07T08:52:48;16.40;;;7.90;;
68072;SDS011;54862;51.502;7.446;2022-12-07T08:55:14;17.60;;;7.10;;
68072;SDS011;54862;51.502;7.446;2022-12-07T08:57:40;20.73;;;7.05;;
68072;SDS011;54862;51.502;7.446;2022-12-07T09:00:07;16.05;;;6.80;;
68072;SDS011;54862;51.502;7.446;2022-12-07T09:02:34;18.95;;;7.43;;
68072;SDS011;54862;51.502;7.446;2022-12-07T09:05:00;13.82;;;6.47;;
68072;SDS011;54862;51.502;7.446;2022-12-07T09:07:26;15.30;;;7.13;;
68072;SDS011;54862;51.502;7.446;2022-12-07T09:09:52;16.38;;;7.05;;
68072;SDS011;54862;51.502;7.446;2022-12-07T09:12:18;19.08;;;7.05;;
68072;SDS011;54862;51.502;7.446;2022-12-07T09:14:44;19.15;;;7.20;;
68072;SDS011;54862;51.502;7.446;2022-12-07T09:17:11;19.70;;;7.60;;
68072;SDS011;54862;51.502;7.446;2022-12-07T09:19:38;16.42;;;7.18;;
68072;SDS011;54862;51.502;7.446;2022-12-07T09:22:05;16.33;;;7.47;;
68072;SDS011;54862;51.502;7.446;2022-12-07T09:24:31;16.63;;;7.10;;
68072;SDS011;54862;51.502;7.446;2022-12-07T09:26:57;16.23;;;7.85;;
68072;SDS011;54862;51.502;7.446;2022-12-07T09:29:23;18.02;;;7.88;;
68072;SDS011;54862;51.502;7.446;2022-12-07T09:31:49;15.07;;;7.53;;
68072;SDS011;54862;51.502;7.446;2022-12-07T09:34:15;18.60;;;7.93;;
68072;SDS011;54862;51.502;7.446;2022-12-07T09:36:42;16.25;;;7.35;;
68072;SDS011;54862;51.502;7.446;2022-12-07T09:39:08;16.85;;;7.57;;
68072;SDS011;54862;51.502;7.446;2022-12-07T09:41:36;17.88;;;7.65;;
68072;SDS011;54862;51.502;7.446;2022-12-07T09:44:04;21.13;;;8.55;;
68072;SDS011;54862;51.502;7.446;2022-12-07T09:46:33;19.33;;;8.45;;
68072;SDS011;54862;51.502;7.446;2022-12-07T09:49:00;19.42;;;7.85;;
68072;SDS011;54862;51.502;7.446;2022-12-07T09:51:26;17.85;;;8.15;;
68072;SDS011;54862;51.502;7.446;2022-12-07T09:53:53;16.58;;;7.90;;
68072;SDS011;54862;51.502;7.446;2022-12-07T09:56:19;20.80;;;8.98;;
68072;SDS011;54862;51.502;7.446;2022-12-07T09:58:46;19.77;;;8.00;;
68072;SDS011;54862;51.502;7.446;2022-12-07T10:01:15;16.30;;;8.25;;
68072;SDS011;54862;51.502;7.446;2022-12-07T10:03:47;19.25;;;9.02;;
68072;SDS011;54862;51.502;7.446;2022-12-07T10:06:14;23.60;;;9.35;;
68072;SDS011;54862;51.502;7.446;2022-12-07T10:08:40;19.52;;;9.32;;
68072;SDS011;54862;51.502;7.446;2022-12-07T10:11:08;21.60;;;9.23;;
68072;SDS011;54862;51.502;7.446;2022-12-07T10:13:42;20.73;;;9.57;;
68072;SDS011;54862;51.502;7.446;2022-12-07T10:18:48;19.38;;;9.15;;
68072;SDS011;54862;51.502;7.446;2022-12-07T10:21:15;23.00;;;10.10;;
68072;SDS011;54862;51.502;7.446;2022-12-07T10:24:03;20.77;;;9.50;;
68072;SDS011;54862;51.502;7.446;2022-12-07T10:34:46;22.75;;;9.90;;
68072;SDS011;54862;51.502;7.446;2022-12-07T10:37:16;23.60;;;10.18;;
68072;SDS011;54862;51.502;7.446;2022-12-07T10:42:15;23.92;;;9.63;;
68072;SDS011;54862;51.502;7.446;2022-12-07T10:44:42;22.17;;;9.05;;
68072;SDS011;54862;51.502;7.446;2022-12-07T11:00:19;17.98;;;7.35;;
68072;SDS011;54862;51.502;7.446;2022-12-07T11:08:00;16.67;;;7.40;;
68072;SDS011;54862;51.502;7.446;2022-12-07T11:10:40;15.35;;;7.22;;
68072;SDS011;54862;51.502;7.446;2022-12-07T11:21:34;14.30;;;6.88;;
68072;SDS011;54862;51.502;7.446;2022-12-07T11:24:18;14.52;;;5.70;;
68072;SDS011;54862;51.502;7.446;2022-12-07T11:29:17;12.07;;;5.35;;
68072;SDS011;54862;51.502;7.446;2022-12-07T11:31:58;16.73;;;5.80;;
68072;SDS011;54862;51.502;7.446;2022-12-07T11:36:56;17.55;;;6.70;;
68072;SDS011;54862;51.502;7.446;2022-12-07T11:41:49;13.43;;;6.65;;
68072;SDS011;54862;51.502;7.446;2022-12-07T11:44:30;14.73;;;6.18;;
68072;SDS011;54862;51.502;7.446;2022-12-07T11:47:05;14.25;;;6.43;;
68072;SDS011;54862;51.502;7.446;2022-12-07T11:49:40;17.73;;;7.00;;
68072;SDS011;54862;51.502;7.446;2022-12-07T11:52:10;17.98;;;7.28;;
68072;SDS011;54862;51.502;7.446;2022-12-07T11:54:40;17.63;;;7.85;;
68072;SDS011;54862;51.502;7.446;2022-12-07T11:57:10;19.67;;;6.60;;
68072;SDS011;54862;51.502;7.446;2022-12-07T11:59:39;20.48;;;6.70;;
68072;SDS011;54862;51.502;7.446;2022-12-07T12:02:20;14.40;;;6.45;;
68072;SDS011;54862;51.502;7.446;2022-12-07T12:05:34;13.85;;;6.28;;
68072;SDS011;54862;51.502;7.446;2022-12-07T12:07:35;11.43;;;5.20;;
68072;SDS011;54862;51.502;7.446;2022-12-07T12:10:04;17.58;;;6.07;;
68072;SDS011;54862;51.502;7.446;2022-12-07T12:17:46;10.80;;;4.80;;
68072;SDS011;54862;51.502;7.446;2022-12-07T12:23:05;10.70;;;5.22;;
68072;SDS011;54862;51.502;7.446;2022-12-07T12:25:42;10.25;;;4.25;;
68072;SDS011;54862;51.502;7.446;2022-12-07T12:31:11;11.20;;;4.97;;
68072;SDS011;54862;51.502;7.446;2022-12-07T12:33:42;12.27;;;4.47;;
68072;SDS011;54862;51.502;7.446;2022-12-07T12:38:51;11.38;;;4.03;;
68072;SDS011;54862;51.502;7.446;2022-12-07T12:46:50;16.55;;;5.38;;
68072;SDS011;54862;51.502;7.446;2022-12-07T12:56:54;10.95;;;3.45;;
68072;SDS011;54862;51.502;7.446;2022-12-07T12:59:25;11.10;;;3.70;;
68072;SDS011;54862;51.502;7.446;2022-12-07T13:04:28;14.05;;;3.97;;
68072;SDS011;54862;51.502;7.446;2022-12-07T13:06:56;10.68;;;3.58;;
68072;SDS011;54862;51.502;7.446;2022-12-07T13:09:24;9.43;;;3.85;;
68072;SDS011;54862;51.502;7.446;2022-12-07T13:11:55;9.10;;;3.95;;
68072;SDS011;54862;51.502;7.446;2022-12-07T13:17:06;9.05;;;3.22;;
68072;SDS011;54862;51.502;7.446;2022-12-07T13:24:59;14.05;;;3.83;;
68072;SDS011;54862;51.502;7.446;2022-12-07T13:27:28;10.98;;;3.50;;
68072;SDS011;54862;51.502;7.446;2022-12-07T13:29:56;9.52;;;3.85;;
68072;SDS011;54862;51.502;7.446;2022-12-07T13:32:28;8.20;;;2.83;;
68072;SDS011;54862;51.502;7.446;2022-12-07T13:34:54;8.18;;;2.70;;
68072;SDS011;54862;51.502;7.446;2022-12-07T13:37:27;9.43;;;2.97;;
68072;SDS011;54862;51.502;7.446;2022-12-07T13:39:55;8.35;;;3.15;;
68072;SDS011;54862;51.502;7.446;2022-12-07T13:42:25;14.57;;;2.72;;
68072;SDS011;54862;51.502;7.446;2022-12-07T13:44:51;11.38;;;3.22;;
68072;SDS011;54862;51.502;7.446;2022-12-07T13:47:30;11.32;;;3.28;;
68072;SDS011;54862;51.502;7.446;2022-12-07T13:49:57;7.60;;;2.90;;
68072;SDS011;54862;51.502;7.446;2022-12-07T13:54:57;12.05;;;3.20;;
68072;SDS011;54862;51.502;7.446;2022-12-07T13:57:24;11.73;;;3.13;;
68072;SDS011;54862;51.502;7.446;2022-12-07T13:59:50;8.55;;;3.13;;
68072;SDS011;54862;51.502;7.446;2022-12-07T14:02:27;7.38;;;2.60;;
68072;SDS011;54862;51.502;7.446;2022-12-07T14:05:06;10.88;;;3.50;;
68072;SDS011;54862;51.502;7.446;2022-12-07T14:07:32;7.85;;;3.42;;
68072;SDS011;54862;51.502;7.446;2022-12-07T14:10:00;12.77;;;2.75;;
68072;SDS011;54862;51.502;7.446;2022-12-07T14:12:27;11.77;;;3.38;;
68072;SDS011;54862;51.502;7.446;2022-12-07T14:14:54;8.27;;;3.08;;
68072;SDS011;54862;51.502;7.446;2022-12-07T14:17:21;11.63;;;3.88;;
68072;SDS011;54862;51.502;7.446;2022-12-07T14:19:52;10.85;;;3.63;;
68072;SDS011;54862;51.502;7.446;2022-12-07T14:22:24;10.63;;;3.92;;
68072;SDS011;54862;51.502;7.446;2022-12-07T14:24:57;11.07;;;3.28;;
68072;SDS011;54862;51.502;7.446;2022-12-07T14:27:23;9.48;;;2.92;;
68072;SDS011;54862;51.502;7.446;2022-12-07T14:29:55;10.13;;;3.00;;
68072;SDS011;54862;51.502;7.446;2022-12-07T14:32:28;8.27;;;3.38;;
68072;SDS011;54862;51.502;7.446;2022-12-07T14:35:03;8.40;;;3.15;;
68072;SDS011;54862;51.502;7.446;2022-12-07T14:37:33;8.60;;;3.35;;
68072;SDS011;54862;51.502;7.446;2022-12-07T14:40:00;9.35;;;3.50;;
68072;SDS011;54862;51.502;7.446;2022-12-07T14:42:27;6.70;;;3.40;;
68072;SDS011;54862;51.502;7.446;2022-12-07T14:44:54;7.90;;;3.08;;
68072;SDS011;54862;51.502;7.446;2022-12-07T14:47:20;5.10;;;2.78;;
68072;SDS011;54862;51.502;7.446;2022-12-07T14:49:46;6.95;;;2.92;;
68072;SDS011;54862;51.502;7.446;2022-12-07T14:52:19;7.57;;;3.10;;
68072;SDS011;54862;51.502;7.446;2022-12-07T14:54:46;8.32;;;3.75;;
68072;SDS011;54862;51.502;7.446;2022-12-07T14:57:13;8.07;;;3.08;;
68072;SDS011;54862;51.502;7.446;2022-12-07T14:59:39;7.63;;;3.20;;
68072;SDS011;54862;51.502;7.446;2022-12-07T15:02:06;7.65;;;2.85;;
68072;SDS011;54862;51.502;7.446;2022-12-07T15:04:32;9.27;;;3.15;;
68072;SDS011;54862;51.502;7.446;2022-12-07T15:06:59;6.38;;;2.90;;
68072;SDS011;54862;51.502;7.446;2022-12-07T15:09:25;7.22;;;3.10;;
68072;SDS011;54862;51.502;7.446;2022-12-07T15:11:51;7.57;;;3.17;;
68072;SDS011;54862;51.502;7.446;2022-12-07T15:14:17;6.32;;;2.88;;
68072;SDS011;54862;51.502;7.446;2022-12-07T15:16:44;10.65;;;3.40;;
68072;SDS011;54862;51.502;7.446;2022-12-07T15:19:10;9.15;;;3.22;;
68072;SDS011;54862;51.502;7.446;2022-12-07T15:21:37;9.13;;;3.58;;
68072;SDS011;54862;51.502;7.446;2022-12-07T15:24:03;8.25;;;3.25;;
68072;SDS011;54862;51.502;7.446;2022-12-07T15:26:29;7.18;;;3.40;;
68072;SDS011;54862;51.502;7.446;2022-12-07T15:28:56;12.60;;;3.58;;
68072;SDS011;54862;51.502;7.446;2022-12-07T15:31:22;10.20;;;3.75;;
68072;SDS011;54862;51.502;7.446;2022-12-07T15:33:48;8.10;;;3.47;;
68072;SDS011;54862;51.502;7.446;2022-12-07T15:36:24;8.68;;;3.72;;
68072;SDS011;54862;51.502;7.446;2022-12-07T15:38:51;10.20;;;3.38;;
68072;SDS011;54862;51.502;7.446;2022-12-07T15:41:17;8.00;;;3.45;;
68072;SDS011;54862;51.502;7.446;2022-12-07T15:43:43;8.65;;;3.70;;
68072;SDS011;54862;51.502;7.446;2022-12-07T15:46:31;12.15;;;3.65;;
68072;SDS011;54862;51.502;7.446;2022-12-07T15:48:57;9.60;;;3.63;;
68072;SDS011;54862;51.502;7.446;2022-12-07T15:51:24;8.90;;;4.30;;
68072;SDS011;54862;51.502;7.446;2022-12-07T15:53:50;10.23;;;4.00;;
68072;SDS011;54862;51.502;7.446;2022-12-07T15:56:16;10.00;;;4.10;;
68072;SDS011;54862;51.502;7.446;2022-12-07T15:58:42;11.68;;;4.53;;
68072;SDS011;54862;51.502;7.446;2022-12-07T16:01:11;9.73;;;4.70;;
68072;SDS011;54862;51.502;7.446;2022-12-07T16:03:37;11.77;;;5.13;;
68072;SDS011;54862;51.502;7.446;2022-12-07T16:06:03;11.93;;;4.65;;
68072;SDS011;54862;51.502;7.446;2022-12-07T16:08:29;10.07;;;4.45;;
68072;SDS011;54862;51.502;7.446;2022-12-07T16:10:55;9.38;;;4.40;;
68072;SDS011;54862;51.502;7.446;2022-12-07T16:13:21;13.05;;;5.30;;
68072;SDS011;54862;51.502;7.446;2022-12-07T16:15:47;12.75;;;5.07;;
68072;SDS011;54862;51.502;7.446;2022-12-07T16:18:13;12.07;;;5.03;;
68072;SDS011;54862;51.502;7.446;2022-12-07T16:20:40;10.93;;;5.28;;
68072;SDS011;54862;51.502;7.446;2022-12-07T16:23:06;15.70;;;5.50;;
68072;SDS011;54862;51.502;7.446;2022-12-07T16:25:32;10.38;;;4.53;;
68072;SDS011;54862;51.502;7.446;2022-12-07T16:27:58;11.82;;;4.72;;
68072;SDS011;54862;51.502;7.446;2022-12-07T16:30:24;9.90;;;4.78;;
68072;SDS011;54862;51.502;7.446;2022-12-07T16:32:50;12.60;;;5.03;;
68072;SDS011;54862;51.502;7.446;2022-12-07T16:35:16;12.13;;;5.03;;